createdAt,value
2019-02-16T00:00:06.064Z,99.90
2019-02-16T00:02:34.798Z,99.90
2019-02-16T00:05:04.128Z,99.90
2019-02-16T00:07:32.875Z,99.90
2019-02-16T00:10:01.554Z,99.90
2019-02-16T00:12:30.185Z,99.90
2019-02-16T00:14:58.902Z,99.90
2019-02-16T00:17:27.583Z,99.60
2019-02-16T00:19:56.322Z,98.90
2019-02-16T00:22:24.922Z,98.00
2019-02-16T00:24:53.587Z,97.20
2019-02-16T00:27:22.204Z,96.50
2019-02-16T00:29:50.863Z,95.90
2019-02-16T00:32:19.481Z,95.60
2019-02-16T00:34:48.208Z,95.30
2019-02-16T00:37:16.814Z,95.60
2019-02-16T00:39:45.476Z,96.30
2019-02-16T00:42:14.148Z,97.10
2019-02-16T00:44:42.816Z,97.90
2019-02-16T00:47:11.494Z,98.50
2019-02-16T00:49:40.098Z,99.20
2019-02-16T00:52:08.971Z,99.80
2019-02-16T00:54:37.580Z,99.90
2019-02-16T00:57:06.301Z,99.90
2019-02-16T00:59:34.903Z,99.90
2019-02-16T01:02:03.982Z,99.90
2019-02-16T01:04:32.660Z,99.90
2019-02-16T01:07:01.316Z,99.90
2019-02-16T01:09:29.920Z,99.90
2019-02-16T01:11:58.585Z,99.60
2019-02-16T01:14:27.277Z,98.90
2019-02-16T01:16:55.885Z,98.00
2019-02-16T01:19:24.504Z,97.80
2019-02-16T01:21:53.162Z,97.30
2019-02-16T01:24:21.820Z,96.90
2019-02-16T01:26:50.502Z,96.50
2019-02-16T01:29:19.165Z,96.30
2019-02-16T01:31:48.065Z,96.20
2019-02-16T01:34:16.794Z,96.20
2019-02-16T01:36:45.466Z,96.10
2019-02-16T01:39:14.079Z,96.00
2019-02-16T01:41:42.751Z,95.90
2019-02-16T01:44:11.484Z,96.00
2019-02-16T01:46:40.096Z,95.90
2019-02-16T01:49:08.700Z,95.90
2019-02-16T01:51:37.361Z,96.30
2019-02-16T01:54:06.037Z,96.50
2019-02-16T01:56:34.695Z,97.00
2019-02-16T01:59:03.301Z,97.50
2019-02-16T02:01:31.970Z,98.00
2019-02-16T02:04:00.570Z,98.50
2019-02-16T02:06:29.236Z,98.40
2019-02-16T02:08:57.909Z,98.70
2019-02-16T02:11:26.669Z,99.90
2019-02-16T02:13:55.328Z,99.90
2019-02-16T02:16:23.934Z,99.90
2019-02-16T02:18:52.577Z,99.90
2019-02-16T02:21:21.194Z,99.90
2019-02-16T02:23:49.857Z,99.90
2019-02-16T02:26:18.450Z,99.90
2019-02-16T02:28:47.096Z,99.90
2019-02-16T02:31:15.717Z,99.90
2019-02-16T02:33:44.368Z,99.90
2019-02-16T02:36:13.039Z,99.90
2019-02-16T02:38:41.708Z,99.90
2019-02-16T02:41:10.399Z,99.90
2019-02-16T02:43:39.117Z,99.90
2019-02-16T02:46:07.782Z,99.90
2019-02-16T02:48:36.462Z,99.90
2019-02-16T02:51:05.242Z,99.90
2019-02-16T02:53:33.859Z,99.90
2019-02-16T02:56:02.526Z,99.90
2019-02-16T02:58:31.207Z,99.90
2019-02-16T03:00:59.870Z,99.90
2019-02-16T03:03:28.478Z,99.90
2019-02-16T03:05:57.211Z,99.90
2019-02-16T03:08:25.824Z,99.90
2019-02-16T03:10:54.479Z,99.90
2019-02-16T03:13:23.096Z,99.90
2019-02-16T03:15:51.751Z,99.90
2019-02-16T03:18:20.359Z,99.90
2019-02-16T03:20:49.087Z,99.80
2019-02-16T03:23:19.326Z,99.70
2019-02-16T03:25:54.155Z,99.70
2019-02-16T03:28:37.981Z,99.60
2019-02-16T03:31:24.454Z,99.80
2019-02-16T03:34:02.205Z,99.90
2019-02-16T03:36:50.227Z,99.90
2019-02-16T03:39:18.980Z,99.90
2019-02-16T03:41:47.710Z,99.90
2019-02-16T03:44:16.397Z,99.90
2019-02-16T03:46:45.059Z,99.90
2019-02-16T03:49:13.801Z,99.90
2019-02-16T03:51:42.408Z,99.90
2019-02-16T03:54:11.027Z,99.90
2019-02-16T03:56:39.693Z,99.90
2019-02-16T03:59:08.494Z,99.90
2019-02-16T04:01:37.102Z,99.90
2019-02-16T04:04:05.909Z,99.90
2019-02-16T04:06:34.694Z,99.90
2019-02-16T04:09:05.304Z,99.90
2019-02-16T04:11:34.191Z,99.90
2019-02-16T04:14:02.843Z,99.90
2019-02-16T04:16:31.515Z,99.90
2019-02-16T04:19:00.121Z,99.90
2019-02-16T04:21:28.848Z,99.90
2019-02-16T04:23:57.523Z,99.90
2019-02-16T04:26:26.188Z,99.90
2019-02-16T04:28:54.874Z,99.90
2019-02-16T04:31:23.609Z,99.90
2019-02-16T04:33:52.220Z,99.90
2019-02-16T04:36:20.859Z,99.90
2019-02-16T04:38:49.466Z,99.90
2019-02-16T04:41:18.126Z,99.90
2019-02-16T04:43:46.803Z,99.90
2019-02-16T04:46:15.477Z,99.90
2019-02-16T04:48:44.084Z,99.90
2019-02-16T04:51:12.740Z,99.90
2019-02-16T04:53:41.395Z,99.90
2019-02-16T04:56:10.208Z,99.90
2019-02-16T04:58:38.860Z,99.90
2019-02-16T05:01:07.520Z,99.90
2019-02-16T05:03:36.131Z,99.90
2019-02-16T05:06:04.872Z,99.90
2019-02-16T05:08:33.472Z,99.90
2019-02-16T05:11:02.154Z,99.90
2019-02-16T05:13:30.769Z,99.90
2019-02-16T05:15:59.483Z,99.90
2019-02-16T05:18:28.093Z,99.90
2019-02-16T05:20:56.697Z,99.90
2019-02-16T05:23:25.360Z,99.90
2019-02-16T05:25:53.972Z,99.90
2019-02-16T05:28:22.624Z,99.90
2019-02-16T05:30:51.371Z,99.90
2019-02-16T05:33:20.040Z,99.90
2019-02-16T05:35:48.655Z,99.90
2019-02-16T05:38:17.248Z,99.90
2019-02-16T05:40:45.914Z,99.90
2019-02-16T05:43:14.651Z,99.90
2019-02-16T05:45:43.324Z,99.90
2019-02-16T05:48:11.989Z,99.90
2019-02-16T05:50:40.656Z,99.90
2019-02-16T05:53:09.265Z,99.90
2019-02-16T05:55:37.880Z,99.90
2019-02-16T05:58:06.539Z,99.90
2019-02-16T06:00:35.217Z,99.90
2019-02-16T06:03:03.966Z,99.90
2019-02-16T06:05:32.606Z,99.90
2019-02-16T06:08:01.343Z,99.90
2019-02-16T06:10:29.948Z,99.90
2019-02-16T06:12:58.607Z,99.90
2019-02-16T06:15:27.270Z,99.90
2019-02-16T06:17:56.010Z,99.90
2019-02-16T06:20:24.669Z,99.90
2019-02-16T06:22:53.279Z,99.90
2019-02-16T06:25:22.010Z,99.90
2019-02-16T06:27:50.677Z,99.90
2019-02-16T06:30:19.339Z,99.90
2019-02-16T06:32:47.944Z,99.90
2019-02-16T06:35:18.244Z,99.90
2019-02-16T06:37:46.890Z,99.90
2019-02-16T06:40:15.568Z,99.90
2019-02-16T06:42:44.184Z,99.90
2019-02-16T06:45:12.927Z,99.90
2019-02-16T06:47:41.576Z,99.90
2019-02-16T06:50:10.346Z,99.90
2019-02-16T06:52:38.998Z,99.90
2019-02-16T06:55:07.794Z,99.90
2019-02-16T06:57:36.647Z,99.90
2019-02-16T07:00:08.366Z,99.90
2019-02-16T07:02:37.180Z,99.90
2019-02-16T07:05:07.133Z,99.90
2019-02-16T07:07:35.792Z,99.90
2019-02-16T07:10:07.898Z,99.90
2019-02-16T07:12:36.589Z,99.90
2019-02-16T07:15:06.785Z,99.90
2019-02-16T07:17:40.603Z,99.90
2019-02-16T07:20:09.779Z,99.90
2019-02-16T07:22:38.565Z,99.90
2019-02-16T07:25:08.008Z,99.90
2019-02-16T07:27:36.764Z,99.90
2019-02-16T07:30:08.254Z,99.90
2019-02-16T07:32:36.917Z,99.90
2019-02-16T07:35:06.824Z,99.90
2019-02-16T07:37:35.469Z,99.90
2019-02-16T07:40:05.711Z,99.90
2019-02-16T07:42:53.852Z,99.90
2019-02-16T07:45:41.816Z,99.90
2019-02-16T07:48:12.121Z,99.90
2019-02-16T07:50:42.367Z,99.90
2019-02-16T07:53:31.414Z,99.90
2019-02-16T07:56:00.539Z,99.90
2019-02-16T07:58:30.907Z,99.90
2019-02-16T08:01:04.006Z,99.90
2019-02-16T08:03:34.396Z,99.90
2019-02-16T08:06:07.346Z,99.90
2019-02-16T08:08:43.776Z,99.90
2019-02-16T08:11:14.082Z,99.90
2019-02-16T08:13:49.953Z,99.90
2019-02-16T08:16:23.196Z,99.90
2019-02-16T08:18:56.394Z,99.90
2019-02-16T08:21:41.666Z,98.10
2019-02-16T08:24:20.834Z,95.60
2019-02-16T08:27:07.475Z,93.30
2019-02-16T08:29:40.319Z,90.00
2019-02-16T08:32:13.684Z,86.70
2019-02-16T08:34:44.071Z,80.00
2019-02-16T08:37:14.395Z,77.00
2019-02-16T08:39:50.696Z,69.90
2019-02-16T08:42:36.397Z,66.00
2019-02-16T08:45:08.563Z,63.70
2019-02-16T08:47:38.798Z,59.70
2019-02-16T08:50:09.244Z,59.00
2019-02-16T08:52:45.584Z,59.60
2019-02-16T08:55:15.915Z,58.80
2019-02-16T08:57:49.198Z,59.20
2019-02-16T09:00:22.221Z,59.70
2019-02-16T09:02:52.512Z,59.70
2019-02-16T09:05:25.812Z,59.40
2019-02-16T09:07:56.118Z,57.00
2019-02-16T09:10:26.380Z,55.60
2019-02-16T09:13:08.682Z,56.80
2019-02-16T09:15:39.007Z,56.10
2019-02-16T09:18:21.460Z,54.80
2019-02-16T09:20:57.495Z,54.30
2019-02-16T09:23:43.000Z,53.50
2019-02-16T09:26:19.387Z,52.70
2019-02-16T09:28:55.396Z,53.00
2019-02-16T09:31:41.957Z,52.00
2019-02-16T09:34:20.952Z,51.90
2019-02-16T09:36:51.370Z,51.30
2019-02-16T09:39:27.564Z,51.40
2019-02-16T09:42:00.919Z,49.50
2019-02-16T09:44:31.282Z,50.30
2019-02-16T09:47:10.934Z,50.40
2019-02-16T09:49:41.247Z,50.90
2019-02-16T09:52:11.555Z,50.10
2019-02-16T09:54:44.602Z,49.70
2019-02-16T09:57:31.446Z,49.40
2019-02-16T10:00:14.114Z,49.00
2019-02-16T10:02:56.222Z,48.30
2019-02-16T10:05:35.122Z,48.60
2019-02-16T10:08:08.479Z,48.10
2019-02-16T10:10:41.681Z,48.30
2019-02-16T10:13:12.020Z,49.10
2019-02-16T10:15:42.286Z,48.80
2019-02-16T10:18:15.308Z,47.10
2019-02-16T10:21:02.087Z,47.10
2019-02-16T10:23:35.356Z,46.60
2019-02-16T10:26:05.612Z,46.60
2019-02-16T10:28:35.863Z,47.70
2019-02-16T10:31:22.701Z,49.20
2019-02-16T10:34:07.750Z,48.70
2019-02-16T10:36:47.140Z,48.90
2019-02-16T10:39:26.276Z,48.50
2019-02-16T10:42:11.650Z,48.30
2019-02-16T10:44:48.039Z,47.50
2019-02-16T10:47:21.038Z,48.50
2019-02-16T10:50:09.553Z,48.20
2019-02-16T10:52:39.868Z,48.80
2019-02-16T10:55:19.354Z,48.50
2019-02-16T10:57:52.079Z,47.70
2019-02-16T11:00:24.995Z,48.60
2019-02-16T11:02:58.286Z,48.20
2019-02-16T11:05:28.597Z,48.40
2019-02-16T11:08:07.825Z,48.80
2019-02-16T11:10:38.217Z,48.10
2019-02-16T11:13:26.658Z,47.70
2019-02-16T11:16:02.766Z,46.80
2019-02-16T11:18:44.764Z,47.80
2019-02-16T11:21:15.152Z,46.50
2019-02-16T11:24:01.387Z,47.80
2019-02-16T11:26:37.974Z,47.30
2019-02-16T11:29:11.232Z,46.90
2019-02-16T11:31:50.742Z,49.30
2019-02-16T11:34:29.739Z,47.40
2019-02-16T11:37:00.122Z,46.80
2019-02-16T11:39:39.625Z,48.50
2019-02-16T11:42:19.003Z,49.10
2019-02-16T11:44:55.388Z,50.00
2019-02-16T11:47:25.645Z,49.00
2019-02-16T11:50:01.917Z,48.10
2019-02-16T11:52:44.430Z,49.50
2019-02-16T11:55:27.015Z,48.30
2019-02-16T11:57:59.771Z,47.20
2019-02-16T12:00:36.192Z,48.90
2019-02-16T12:03:12.329Z,49.40
2019-02-16T12:05:48.229Z,50.10
2019-02-16T12:08:30.759Z,49.00
2019-02-16T12:11:07.178Z,50.80
2019-02-16T12:13:37.485Z,51.00
2019-02-16T12:16:07.747Z,49.40
2019-02-16T12:18:38.067Z,50.60
2019-02-16T12:21:08.471Z,49.50
2019-02-16T12:23:44.890Z,49.50
2019-02-16T12:26:15.141Z,51.70
2019-02-16T12:29:00.472Z,51.70
2019-02-16T12:31:33.789Z,52.70
2019-02-16T12:34:06.846Z,53.90
2019-02-16T12:36:39.990Z,54.30
2019-02-16T12:39:16.384Z,54.60
2019-02-16T12:41:46.712Z,54.70
2019-02-16T12:44:17.162Z,55.00
2019-02-16T12:46:50.198Z,55.20
2019-02-16T12:49:29.265Z,54.80
2019-02-16T12:52:02.153Z,53.80
2019-02-16T12:54:41.283Z,55.10
2019-02-16T12:57:14.587Z,53.50
2019-02-16T12:59:54.179Z,54.90
2019-02-16T13:02:40.829Z,55.70
2019-02-16T13:05:17.265Z,54.90
2019-02-16T13:07:50.294Z,54.10
2019-02-16T13:10:35.904Z,54.80
2019-02-16T13:13:09.182Z,54.90
2019-02-16T13:15:42.894Z,55.50
2019-02-16T13:18:18.924Z,55.60
2019-02-16T13:21:07.396Z,55.80
2019-02-16T13:23:37.659Z,56.40
2019-02-16T13:26:23.970Z,56.40
2019-02-16T13:28:54.280Z,54.90
2019-02-16T13:31:40.099Z,54.80
2019-02-16T13:34:18.965Z,54.10
2019-02-16T13:37:05.332Z,54.20
2019-02-16T13:39:35.663Z,56.60
2019-02-16T13:42:06.060Z,54.70
2019-02-16T13:44:37.496Z,55.10
2019-02-16T13:47:10.716Z,55.60
2019-02-16T13:49:54.278Z,54.90
2019-02-16T13:52:32.504Z,56.90
2019-02-16T13:55:03.381Z,54.90
2019-02-16T13:57:36.340Z,54.20
2019-02-16T14:00:18.496Z,55.80
2019-02-16T14:02:54.911Z,57.00
2019-02-16T14:05:28.203Z,56.40
2019-02-16T14:08:01.617Z,56.20
2019-02-16T14:10:38.045Z,55.80
2019-02-16T14:13:14.172Z,57.70
2019-02-16T14:15:53.316Z,58.80
2019-02-16T14:18:21.998Z,56.80
2019-02-16T14:20:50.672Z,56.60
2019-02-16T14:23:19.358Z,58.30
2019-02-16T14:25:48.041Z,58.20
2019-02-16T14:28:16.727Z,59.40
2019-02-16T14:30:45.516Z,59.10
2019-02-16T14:33:14.132Z,57.80
2019-02-16T14:35:43.328Z,59.70
2019-02-16T14:38:19.626Z,60.00
2019-02-16T14:40:50.127Z,60.00
2019-02-16T14:43:18.824Z,60.40
2019-02-16T14:45:47.504Z,60.00
2019-02-16T14:48:16.120Z,59.60
2019-02-16T14:50:44.745Z,58.70
2019-02-16T14:53:13.421Z,57.60
2019-02-16T14:55:42.039Z,59.40
2019-02-16T14:58:10.711Z,63.20
2019-02-16T15:00:39.330Z,62.30
2019-02-16T15:03:08.926Z,62.70
2019-02-16T15:05:37.549Z,62.20
2019-02-16T15:08:06.436Z,60.80
2019-02-16T15:10:35.384Z,63.70
2019-02-16T15:13:04.054Z,64.30
2019-02-16T15:15:32.836Z,64.80
2019-02-16T15:18:01.526Z,64.40
2019-02-16T15:20:30.275Z,64.60
2019-02-16T15:22:58.960Z,63.40
2019-02-16T15:25:27.628Z,64.60
2019-02-16T15:27:56.321Z,65.60
2019-02-16T15:30:24.996Z,67.10
2019-02-16T15:32:53.614Z,67.00
2019-02-16T15:35:22.348Z,68.10
2019-02-16T15:37:53.067Z,68.50
2019-02-16T15:40:21.820Z,69.30
2019-02-16T15:42:50.609Z,69.10
2019-02-16T15:45:19.379Z,70.00
2019-02-16T15:47:48.190Z,71.30
2019-02-16T15:50:21.021Z,72.10
2019-02-16T15:52:49.696Z,73.40
2019-02-16T15:55:18.394Z,73.90
2019-02-16T15:57:47.123Z,74.30
2019-02-16T16:00:18.439Z,74.90
2019-02-16T16:02:47.157Z,76.60
2019-02-16T16:05:15.935Z,77.80
2019-02-16T16:07:46.355Z,77.20
2019-02-16T16:10:22.724Z,77.10
2019-02-16T16:13:01.817Z,76.60
2019-02-16T16:15:41.523Z,78.60
2019-02-16T16:18:10.916Z,79.90
2019-02-16T16:20:57.181Z,80.20
2019-02-16T16:23:36.435Z,82.90
2019-02-16T16:26:19.039Z,84.00
2019-02-16T16:28:50.437Z,85.20
2019-02-16T16:31:29.187Z,87.20
2019-02-16T16:34:15.989Z,88.10
2019-02-16T16:36:46.281Z,88.70
2019-02-16T16:39:16.672Z,87.50
2019-02-16T16:41:52.923Z,88.00
2019-02-16T16:44:39.312Z,89.00
2019-02-16T16:47:22.411Z,90.40
2019-02-16T16:50:04.707Z,90.60
2019-02-16T16:52:40.701Z,90.80
2019-02-16T16:55:13.861Z,91.80
2019-02-16T16:57:53.106Z,92.00
2019-02-16T17:00:23.559Z,93.80
2019-02-16T17:03:10.174Z,94.10
2019-02-16T17:05:46.258Z,94.90
2019-02-16T17:08:25.632Z,95.50
2019-02-16T17:10:58.883Z,95.80
2019-02-16T17:13:35.333Z,95.90
2019-02-16T17:16:11.228Z,96.20
2019-02-16T17:18:41.498Z,96.50
2019-02-16T17:21:17.738Z,96.80
2019-02-16T17:24:01.725Z,97.10
2019-02-16T17:26:41.187Z,97.40
2019-02-16T17:29:28.742Z,97.70
2019-02-16T17:32:14.258Z,97.90
2019-02-16T17:34:44.606Z,97.70
2019-02-16T17:37:24.118Z,98.20
2019-02-16T17:39:54.391Z,98.20
2019-02-16T17:42:41.412Z,98.60
2019-02-16T17:45:24.107Z,98.90
2019-02-16T17:48:10.651Z,99.00
2019-02-16T17:50:43.734Z,99.10
2019-02-16T17:53:13.988Z,99.00
2019-02-16T17:55:44.395Z,99.00
2019-02-16T17:58:14.756Z,99.10
2019-02-16T18:00:45.225Z,99.00
2019-02-16T18:03:33.546Z,99.20
2019-02-16T18:06:04.017Z,99.20
2019-02-16T18:08:40.663Z,99.30
2019-02-16T18:11:27.560Z,99.40
2019-02-16T18:14:03.587Z,99.60
2019-02-16T18:16:36.867Z,99.80
2019-02-16T18:19:09.591Z,99.90
2019-02-16T18:21:42.934Z,99.90
2019-02-16T18:24:18.883Z,99.90
2019-02-16T18:26:56.124Z,99.90
2019-02-16T18:29:30.311Z,99.90
2019-02-16T18:32:09.619Z,99.90
2019-02-16T18:34:51.991Z,99.90
2019-02-16T18:37:28.091Z,99.90
2019-02-16T18:40:07.183Z,99.90
2019-02-16T18:42:37.472Z,99.90
2019-02-16T18:45:13.748Z,99.90
2019-02-16T18:47:46.863Z,99.90
2019-02-16T18:50:33.325Z,99.90
2019-02-16T18:53:18.325Z,99.90
2019-02-16T18:56:00.559Z,99.90
2019-02-16T18:58:33.369Z,99.90
2019-02-16T19:01:12.389Z,99.90
2019-02-16T19:03:45.554Z,99.90
2019-02-16T19:06:24.932Z,99.90
2019-02-16T19:08:57.987Z,99.90
2019-02-16T19:11:34.235Z,99.90
2019-02-16T19:14:19.763Z,99.90
2019-02-16T19:16:55.980Z,99.90
2019-02-16T19:19:35.546Z,99.90
2019-02-16T19:22:21.971Z,99.90
2019-02-16T19:25:04.479Z,99.90
2019-02-16T19:27:37.519Z,99.90
2019-02-16T19:30:25.905Z,99.90
2019-02-16T19:32:56.200Z,99.90
2019-02-16T19:35:29.435Z,99.90
2019-02-16T19:38:05.335Z,99.90
2019-02-16T19:40:35.579Z,99.90
2019-02-16T19:43:12.212Z,99.90
2019-02-16T19:45:45.400Z,99.90
2019-02-16T19:48:16.878Z,99.90
2019-02-16T19:51:02.434Z,99.90
2019-02-16T19:53:35.470Z,99.90
2019-02-16T19:56:05.804Z,99.90
2019-02-16T19:58:52.152Z,99.90
2019-02-16T20:01:31.427Z,99.90
2019-02-16T20:04:18.315Z,99.90
2019-02-16T20:06:48.565Z,99.90
2019-02-16T20:09:18.873Z,99.90
2019-02-16T20:11:58.429Z,99.90
2019-02-16T20:14:31.601Z,99.90
2019-02-16T20:17:10.755Z,99.90
2019-02-16T20:19:50.311Z,99.90
2019-02-16T20:22:20.702Z,99.90
2019-02-16T20:25:00.291Z,99.90
2019-02-16T20:27:36.971Z,99.90
2019-02-16T20:30:05.599Z,99.90
2019-02-16T20:32:38.800Z,99.90
2019-02-16T20:35:11.899Z,99.90
2019-02-16T20:37:48.286Z,99.90
2019-02-16T20:40:21.626Z,99.90
2019-02-16T20:43:00.986Z,99.90
2019-02-16T20:45:40.632Z,99.90
2019-02-16T20:48:27.385Z,99.90
2019-02-16T20:50:57.694Z,99.90
2019-02-16T20:53:37.192Z,99.90
2019-02-16T20:56:10.479Z,99.90
2019-02-16T20:58:52.934Z,99.90
2019-02-16T21:01:35.260Z,99.90
2019-02-16T21:04:14.970Z,99.90
2019-02-16T21:07:01.692Z,99.90
2019-02-16T21:09:38.408Z,99.90
2019-02-16T21:12:11.553Z,99.90
2019-02-16T21:14:50.796Z,99.90
2019-02-16T21:17:21.157Z,99.90
2019-02-16T21:19:51.493Z,99.90
2019-02-16T21:22:22.104Z,99.90
2019-02-16T21:24:52.292Z,99.90
2019-02-16T21:27:28.580Z,99.90
2019-02-16T21:30:04.762Z,99.90
2019-02-16T21:32:35.105Z,99.90
2019-02-16T21:35:18.332Z,99.90
2019-02-16T21:37:54.286Z,99.90
2019-02-16T21:40:24.535Z,99.90
2019-02-16T21:42:54.847Z,99.90
2019-02-16T21:45:41.287Z,99.90
2019-02-16T21:48:14.332Z,99.90
2019-02-16T21:50:59.911Z,99.90
2019-02-16T21:53:35.881Z,99.90
2019-02-16T21:56:15.574Z,99.90
2019-02-16T21:59:02.221Z,99.90
2019-02-16T22:01:35.519Z,99.90
2019-02-16T22:04:11.840Z,99.90
2019-02-16T22:06:42.152Z,99.90
2019-02-16T22:09:13.149Z,99.90
2019-02-16T22:11:48.940Z,99.90
2019-02-16T22:14:17.610Z,99.90
2019-02-16T22:16:46.277Z,99.90
2019-02-16T22:19:15.029Z,99.90
2019-02-16T22:21:43.685Z,99.90
2019-02-16T22:24:12.419Z,99.90
2019-02-16T22:26:41.029Z,99.90
2019-02-16T22:29:09.752Z,99.90
2019-02-16T22:31:38.492Z,99.90
2019-02-16T22:34:07.163Z,99.90
2019-02-16T22:36:35.781Z,99.90
2019-02-16T22:39:05.092Z,99.90
2019-02-16T22:41:33.765Z,99.90
2019-02-16T22:44:02.533Z,99.90
2019-02-16T22:46:31.280Z,99.90
2019-02-16T22:48:59.955Z,99.90
2019-02-16T22:51:28.565Z,99.90
2019-02-16T22:53:57.303Z,99.90
2019-02-16T22:56:25.962Z,99.90
2019-02-16T22:58:54.632Z,99.90
2019-02-16T23:01:23.380Z,99.90
2019-02-16T23:03:52.200Z,99.90
2019-02-16T23:06:20.881Z,99.90
2019-02-16T23:08:49.498Z,99.90
2019-02-16T23:11:18.306Z,99.90
2019-02-16T23:13:47.054Z,99.90
2019-02-16T23:16:15.863Z,99.90
2019-02-16T23:18:44.563Z,99.90
2019-02-16T23:21:13.302Z,99.90
2019-02-16T23:23:42.001Z,99.90
2019-02-16T23:26:10.804Z,99.90
2019-02-16T23:28:39.486Z,99.90
2019-02-16T23:31:08.168Z,99.90
2019-02-16T23:33:36.842Z,99.90
2019-02-16T23:36:05.604Z,99.90
2019-02-16T23:38:34.275Z,99.90
2019-02-16T23:41:02.960Z,99.90
2019-02-16T23:43:31.576Z,99.90
2019-02-16T23:46:00.334Z,99.90
2019-02-16T23:48:28.945Z,99.90
2019-02-16T23:50:57.706Z,99.90
2019-02-16T23:53:26.415Z,99.90
2019-02-16T23:55:55.163Z,99.90
2019-02-16T23:58:23.786Z,99.90
